sensor_id;sensor_type;location;lat;lon;timestamp;P1;durP1;ratioP1;P2;durP2;ratioP2
6105;SDS011;3083;51.508;7.966;2023-08-21T00:01:43;17.87;;;10.70;;
6105;SDS011;3083;51.508;7.966;2023-08-21T00:04:10;16.30;;;10.80;;
6105;SDS011;3083;51.508;7.966;2023-08-21T00:06:37;17.20;;;10.97;;
6105;SDS011;3083;51.508;7.966;2023-08-21T00:09:04;18.27;;;11.60;;
6105;SDS011;3083;51.508;7.966;2023-08-21T00:11:31;18.83;;;12.10;;
6105;SDS011;3083;51.508;7.966;2023-08-21T00:13:58;15.97;;;10.23;;
6105;SDS011;3083;51.508;7.966;2023-08-21T00:16:27;17.90;;;10.80;;
6105;SDS011;3083;51.508;7.966;2023-08-21T00:18:55;20.30;;;10.67;;
6105;SDS011;3083;51.508;7.966;2023-08-21T00:21:22;17.70;;;11.50;;
6105;SDS011;3083;51.508;7.966;2023-08-21T00:23:49;19.80;;;12.27;;
6105;SDS011;3083;51.508;7.966;2023-08-21T00:26:16;15.20;;;11.00;;
6105;SDS011;3083;51.508;7.966;2023-08-21T00:28:43;16.80;;;11.27;;
6105;SDS011;3083;51.508;7.966;2023-08-21T00:31:10;19.13;;;11.60;;
6105;SDS011;3083;51.508;7.966;2023-08-21T00:33:39;15.47;;;10.53;;
6105;SDS011;3083;51.508;7.966;2023-08-21T00:36:06;18.30;;;11.90;;
6105;SDS011;3083;51.508;7.966;2023-08-21T00:38:33;20.83;;;12.70;;
6105;SDS011;3083;51.508;7.966;2023-08-21T00:41:00;19.60;;;13.20;;
6105;SDS011;3083;51.508;7.966;2023-08-21T00:43:26;20.70;;;13.60;;
6105;SDS011;3083;51.508;7.966;2023-08-21T00:45:53;20.10;;;12.83;;
6105;SDS011;3083;51.508;7.966;2023-08-21T00:48:21;18.93;;;12.90;;
6105;SDS011;3083;51.508;7.966;2023-08-21T00:50:49;20.40;;;12.10;;
6105;SDS011;3083;51.508;7.966;2023-08-21T00:53:16;23.07;;;12.93;;
6105;SDS011;3083;51.508;7.966;2023-08-21T00:55:44;16.67;;;11.97;;
6105;SDS011;3083;51.508;7.966;2023-08-21T00:58:12;17.73;;;11.80;;
6105;SDS011;3083;51.508;7.966;2023-08-21T01:00:40;16.90;;;10.53;;
6105;SDS011;3083;51.508;7.966;2023-08-21T01:03:08;15.90;;;11.40;;
6105;SDS011;3083;51.508;7.966;2023-08-21T01:05:35;17.73;;;11.60;;
6105;SDS011;3083;51.508;7.966;2023-08-21T01:08:05;20.83;;;11.40;;
6105;SDS011;3083;51.508;7.966;2023-08-21T01:10:39;19.47;;;10.97;;
6105;SDS011;3083;51.508;7.966;2023-08-21T01:13:14;15.80;;;10.53;;
6105;SDS011;3083;51.508;7.966;2023-08-21T01:15:48;15.00;;;10.50;;
6105;SDS011;3083;51.508;7.966;2023-08-21T01:18:18;18.90;;;11.83;;
6105;SDS011;3083;51.508;7.966;2023-08-21T01:20:47;16.47;;;11.30;;
6105;SDS011;3083;51.508;7.966;2023-08-21T01:23:28;17.40;;;12.10;;
6105;SDS011;3083;51.508;7.966;2023-08-21T01:25:56;16.07;;;10.90;;
6105;SDS011;3083;51.508;7.966;2023-08-21T01:28:23;15.57;;;10.30;;
6105;SDS011;3083;51.508;7.966;2023-08-21T01:30:50;19.27;;;11.70;;
6105;SDS011;3083;51.508;7.966;2023-08-21T01:33:21;17.67;;;11.53;;
6105;SDS011;3083;51.508;7.966;2023-08-21T01:35:50;16.07;;;11.57;;
6105;SDS011;3083;51.508;7.966;2023-08-21T01:38:18;15.70;;;11.47;;
6105;SDS011;3083;51.508;7.966;2023-08-21T01:40:48;18.20;;;10.67;;
6105;SDS011;3083;51.508;7.966;2023-08-21T01:43:15;16.03;;;10.90;;
6105;SDS011;3083;51.508;7.966;2023-08-21T01:45:41;16.43;;;10.53;;
6105;SDS011;3083;51.508;7.966;2023-08-21T01:48:08;15.47;;;10.57;;
6105;SDS011;3083;51.508;7.966;2023-08-21T01:50:35;17.73;;;10.70;;
6105;SDS011;3083;51.508;7.966;2023-08-21T01:53:03;15.60;;;10.50;;
6105;SDS011;3083;51.508;7.966;2023-08-21T01:55:30;15.70;;;10.50;;
6105;SDS011;3083;51.508;7.966;2023-08-21T01:57:58;17.43;;;10.87;;
6105;SDS011;3083;51.508;7.966;2023-08-21T02:00:25;15.80;;;9.87;;
6105;SDS011;3083;51.508;7.966;2023-08-21T02:02:52;16.03;;;10.20;;
6105;SDS011;3083;51.508;7.966;2023-08-21T02:05:19;14.50;;;9.57;;
6105;SDS011;3083;51.508;7.966;2023-08-21T02:07:46;18.47;;;10.30;;
6105;SDS011;3083;51.508;7.966;2023-08-21T02:10:13;16.80;;;10.20;;
6105;SDS011;3083;51.508;7.966;2023-08-21T02:12:40;17.97;;;9.40;;
6105;SDS011;3083;51.508;7.966;2023-08-21T02:15:09;15.27;;;10.33;;
6105;SDS011;3083;51.508;7.966;2023-08-21T02:17:36;15.10;;;9.77;;
6105;SDS011;3083;51.508;7.966;2023-08-21T02:20:04;16.30;;;10.53;;
6105;SDS011;3083;51.508;7.966;2023-08-21T02:22:31;14.50;;;10.13;;
6105;SDS011;3083;51.508;7.966;2023-08-21T02:24:58;15.20;;;9.90;;
6105;SDS011;3083;51.508;7.966;2023-08-21T02:27:25;16.50;;;10.10;;
6105;SDS011;3083;51.508;7.966;2023-08-21T02:29:52;17.23;;;9.80;;
6105;SDS011;3083;51.508;7.966;2023-08-21T02:32:21;17.37;;;10.50;;
6105;SDS011;3083;51.508;7.966;2023-08-21T02:34:48;18.07;;;10.50;;
6105;SDS011;3083;51.508;7.966;2023-08-21T02:37:15;18.40;;;9.73;;
6105;SDS011;3083;51.508;7.966;2023-08-21T02:39:42;15.30;;;10.10;;
6105;SDS011;3083;51.508;7.966;2023-08-21T02:42:09;16.10;;;8.93;;
6105;SDS011;3083;51.508;7.966;2023-08-21T02:44:36;17.13;;;8.53;;
6105;SDS011;3083;51.508;7.966;2023-08-21T02:47:03;18.90;;;9.67;;
6105;SDS011;3083;51.508;7.966;2023-08-21T02:49:31;16.73;;;10.83;;
6105;SDS011;3083;51.508;7.966;2023-08-21T02:51:58;14.57;;;9.80;;
6105;SDS011;3083;51.508;7.966;2023-08-21T02:54:25;15.77;;;9.80;;
6105;SDS011;3083;51.508;7.966;2023-08-21T02:56:52;14.63;;;10.33;;
6105;SDS011;3083;51.508;7.966;2023-08-21T02:59:19;17.20;;;10.23;;
6105;SDS011;3083;51.508;7.966;2023-08-21T03:01:46;14.10;;;10.30;;
6105;SDS011;3083;51.508;7.966;2023-08-21T03:04:13;14.87;;;10.00;;
6105;SDS011;3083;51.508;7.966;2023-08-21T03:06:41;20.13;;;10.70;;
6105;SDS011;3083;51.508;7.966;2023-08-21T03:09:08;17.07;;;11.00;;
6105;SDS011;3083;51.508;7.966;2023-08-21T03:11:35;18.70;;;10.07;;
6105;SDS011;3083;51.508;7.966;2023-08-21T03:14:02;14.47;;;9.97;;
6105;SDS011;3083;51.508;7.966;2023-08-21T03:16:29;24.83;;;11.30;;
6105;SDS011;3083;51.508;7.966;2023-08-21T03:18:57;16.60;;;10.73;;
6105;SDS011;3083;51.508;7.966;2023-08-21T03:21:25;15.40;;;10.83;;
6105;SDS011;3083;51.508;7.966;2023-08-21T03:23:55;17.53;;;9.70;;
6105;SDS011;3083;51.508;7.966;2023-08-21T03:26:23;17.63;;;11.30;;
6105;SDS011;3083;51.508;7.966;2023-08-21T03:28:50;19.50;;;10.80;;
6105;SDS011;3083;51.508;7.966;2023-08-21T03:31:17;16.53;;;10.80;;
6105;SDS011;3083;51.508;7.966;2023-08-21T03:33:45;20.90;;;12.23;;
6105;SDS011;3083;51.508;7.966;2023-08-21T03:36:13;18.97;;;11.50;;
6105;SDS011;3083;51.508;7.966;2023-08-21T03:38:40;19.93;;;11.30;;
6105;SDS011;3083;51.508;7.966;2023-08-21T03:41:08;17.27;;;11.00;;
6105;SDS011;3083;51.508;7.966;2023-08-21T03:43:35;17.63;;;12.60;;
6105;SDS011;3083;51.508;7.966;2023-08-21T03:46:02;20.97;;;11.00;;
6105;SDS011;3083;51.508;7.966;2023-08-21T03:48:29;18.70;;;10.30;;
6105;SDS011;3083;51.508;7.966;2023-08-21T03:50:56;18.17;;;9.60;;
6105;SDS011;3083;51.508;7.966;2023-08-21T03:53:23;15.60;;;10.40;;
6105;SDS011;3083;51.508;7.966;2023-08-21T03:55:50;15.27;;;9.40;;
6105;SDS011;3083;51.508;7.966;2023-08-21T03:58:19;15.17;;;9.10;;
6105;SDS011;3083;51.508;7.966;2023-08-21T04:00:46;15.37;;;9.10;;
6105;SDS011;3083;51.508;7.966;2023-08-21T04:03:13;18.73;;;11.13;;
6105;SDS011;3083;51.508;7.966;2023-08-21T04:05:40;15.30;;;9.20;;
6105;SDS011;3083;51.508;7.966;2023-08-21T04:08:07;17.27;;;10.83;;
6105;SDS011;3083;51.508;7.966;2023-08-21T04:10:34;17.10;;;10.73;;
6105;SDS011;3083;51.508;7.966;2023-08-21T04:13:01;21.23;;;11.17;;
6105;SDS011;3083;51.508;7.966;2023-08-21T04:15:30;18.80;;;11.80;;
6105;SDS011;3083;51.508;7.966;2023-08-21T04:17:57;21.47;;;12.27;;
6105;SDS011;3083;51.508;7.966;2023-08-21T04:20:24;18.80;;;10.47;;
6105;SDS011;3083;51.508;7.966;2023-08-21T04:22:51;18.10;;;11.67;;
6105;SDS011;3083;51.508;7.966;2023-08-21T04:25:18;19.10;;;12.90;;
6105;SDS011;3083;51.508;7.966;2023-08-21T04:27:45;21.03;;;12.50;;
6105;SDS011;3083;51.508;7.966;2023-08-21T04:30:13;24.07;;;14.60;;
6105;SDS011;3083;51.508;7.966;2023-08-21T04:32:41;23.93;;;13.93;;
6105;SDS011;3083;51.508;7.966;2023-08-21T04:35:08;20.83;;;14.03;;
6105;SDS011;3083;51.508;7.966;2023-08-21T04:40:04;20.40;;;12.70;;
6105;SDS011;3083;51.508;7.966;2023-08-21T04:42:32;18.13;;;12.60;;
6105;SDS011;3083;51.508;7.966;2023-08-21T04:44:59;18.90;;;12.40;;
6105;SDS011;3083;51.508;7.966;2023-08-21T04:47:27;17.07;;;11.33;;
6105;SDS011;3083;51.508;7.966;2023-08-21T04:49:56;17.50;;;11.27;;
6105;SDS011;3083;51.508;7.966;2023-08-21T04:52:23;17.90;;;13.10;;
6105;SDS011;3083;51.508;7.966;2023-08-21T04:54:51;16.00;;;11.10;;
6105;SDS011;3083;51.508;7.966;2023-08-21T04:57:18;16.70;;;11.83;;
6105;SDS011;3083;51.508;7.966;2023-08-21T04:59:46;21.10;;;12.73;;
6105;SDS011;3083;51.508;7.966;2023-08-21T05:02:13;18.23;;;11.70;;
6105;SDS011;3083;51.508;7.966;2023-08-21T05:04:40;18.70;;;11.87;;
6105;SDS011;3083;51.508;7.966;2023-08-21T05:07:09;19.43;;;11.97;;
6105;SDS011;3083;51.508;7.966;2023-08-21T05:09:36;17.40;;;11.83;;
6105;SDS011;3083;51.508;7.966;2023-08-21T05:12:03;18.20;;;12.03;;
6105;SDS011;3083;51.508;7.966;2023-08-21T05:14:31;22.10;;;13.47;;
6105;SDS011;3083;51.508;7.966;2023-08-21T05:16:58;18.90;;;12.87;;
6105;SDS011;3083;51.508;7.966;2023-08-21T05:19:25;22.97;;;12.70;;
6105;SDS011;3083;51.508;7.966;2023-08-21T05:21:53;19.27;;;12.90;;
6105;SDS011;3083;51.508;7.966;2023-08-21T05:24:21;24.50;;;14.50;;
6105;SDS011;3083;51.508;7.966;2023-08-21T05:26:48;22.13;;;13.80;;
6105;SDS011;3083;51.508;7.966;2023-08-21T05:29:15;20.97;;;14.30;;
6105;SDS011;3083;51.508;7.966;2023-08-21T05:31:42;22.50;;;15.70;;
6105;SDS011;3083;51.508;7.966;2023-08-21T05:34:09;21.40;;;13.10;;
6105;SDS011;3083;51.508;7.966;2023-08-21T05:36:36;24.53;;;11.70;;
6105;SDS011;3083;51.508;7.966;2023-08-21T05:39:04;13.40;;;9.87;;
6105;SDS011;3083;51.508;7.966;2023-08-21T05:41:33;14.17;;;9.20;;
6105;SDS011;3083;51.508;7.966;2023-08-21T05:44:00;18.50;;;10.50;;
6105;SDS011;3083;51.508;7.966;2023-08-21T05:46:27;15.20;;;10.70;;
6105;SDS011;3083;51.508;7.966;2023-08-21T05:48:54;14.97;;;9.77;;
6105;SDS011;3083;51.508;7.966;2023-08-21T05:51:21;16.80;;;10.77;;
6105;SDS011;3083;51.508;7.966;2023-08-21T05:53:48;18.43;;;12.40;;
6105;SDS011;3083;51.508;7.966;2023-08-21T05:56:15;15.43;;;11.77;;
6105;SDS011;3083;51.508;7.966;2023-08-21T05:58:43;18.43;;;12.03;;
6105;SDS011;3083;51.508;7.966;2023-08-21T06:01:10;19.30;;;11.80;;
6105;SDS011;3083;51.508;7.966;2023-08-21T06:03:37;15.53;;;11.63;;
6105;SDS011;3083;51.508;7.966;2023-08-21T06:06:04;21.33;;;11.30;;
6105;SDS011;3083;51.508;7.966;2023-08-21T06:08:31;18.73;;;13.37;;
6105;SDS011;3083;51.508;7.966;2023-08-21T06:10:59;20.40;;;12.37;;
6105;SDS011;3083;51.508;7.966;2023-08-21T06:13:25;13.80;;;9.27;;
6105;SDS011;3083;51.508;7.966;2023-08-21T06:15:55;12.30;;;8.47;;
6105;SDS011;3083;51.508;7.966;2023-08-21T06:18:23;12.70;;;8.97;;
6105;SDS011;3083;51.508;7.966;2023-08-21T06:20:49;15.70;;;8.00;;
6105;SDS011;3083;51.508;7.966;2023-08-21T06:23:18;15.10;;;8.50;;
6105;SDS011;3083;51.508;7.966;2023-08-21T06:25:47;10.50;;;8.30;;
6105;SDS011;3083;51.508;7.966;2023-08-21T06:28:14;17.27;;;9.20;;
6105;SDS011;3083;51.508;7.966;2023-08-21T06:30:41;9.37;;;7.77;;
6105;SDS011;3083;51.508;7.966;2023-08-21T06:33:10;10.50;;;8.60;;
6105;SDS011;3083;51.508;7.966;2023-08-21T06:35:37;12.20;;;8.10;;
6105;SDS011;3083;51.508;7.966;2023-08-21T06:38:05;13.83;;;9.07;;
6105;SDS011;3083;51.508;7.966;2023-08-21T06:40:32;13.00;;;9.50;;
6105;SDS011;3083;51.508;7.966;2023-08-21T06:42:59;11.20;;;9.03;;
6105;SDS011;3083;51.508;7.966;2023-08-21T06:45:26;11.87;;;9.00;;
6105;SDS011;3083;51.508;7.966;2023-08-21T06:47:55;11.67;;;9.10;;
6105;SDS011;3083;51.508;7.966;2023-08-21T06:50:24;12.37;;;8.67;;
6105;SDS011;3083;51.508;7.966;2023-08-21T06:52:51;11.83;;;8.70;;
6105;SDS011;3083;51.508;7.966;2023-08-21T06:55:18;14.63;;;8.27;;
6105;SDS011;3083;51.508;7.966;2023-08-21T06:57:45;10.90;;;8.47;;
6105;SDS011;3083;51.508;7.966;2023-08-21T07:00:13;12.57;;;8.03;;
6105;SDS011;3083;51.508;7.966;2023-08-21T07:02:40;11.20;;;8.63;;
6105;SDS011;3083;51.508;7.966;2023-08-21T07:05:07;12.60;;;8.97;;
6105;SDS011;3083;51.508;7.966;2023-08-21T07:07:35;9.20;;;7.73;;
6105;SDS011;3083;51.508;7.966;2023-08-21T07:10:03;10.03;;;7.23;;
6105;SDS011;3083;51.508;7.966;2023-08-21T07:12:30;13.20;;;7.70;;
6105;SDS011;3083;51.508;7.966;2023-08-21T07:14:57;9.60;;;7.35;;
6105;SDS011;3083;51.508;7.966;2023-08-21T07:17:24;8.70;;;6.97;;
6105;SDS011;3083;51.508;7.966;2023-08-21T07:19:51;12.40;;;8.10;;
6105;SDS011;3083;51.508;7.966;2023-08-21T07:22:18;10.90;;;7.33;;
6105;SDS011;3083;51.508;7.966;2023-08-21T07:24:47;11.73;;;8.50;;
6105;SDS011;3083;51.508;7.966;2023-08-21T07:27:14;10.90;;;8.63;;
6105;SDS011;3083;51.508;7.966;2023-08-21T07:29:41;12.43;;;8.40;;
6105;SDS011;3083;51.508;7.966;2023-08-21T07:32:08;14.73;;;8.47;;
6105;SDS011;3083;51.508;7.966;2023-08-21T07:34:35;13.07;;;8.90;;
6105;SDS011;3083;51.508;7.966;2023-08-21T07:37:02;10.87;;;8.83;;
6105;SDS011;3083;51.508;7.966;2023-08-21T07:39:29;10.20;;;8.67;;
6105;SDS011;3083;51.508;7.966;2023-08-21T07:41:58;15.63;;;8.33;;
6105;SDS011;3083;51.508;7.966;2023-08-21T07:44:25;13.90;;;8.93;;
6105;SDS011;3083;51.508;7.966;2023-08-21T07:46:52;11.03;;;8.10;;
6105;SDS011;3083;51.508;7.966;2023-08-21T07:49:19;12.03;;;7.87;;
6105;SDS011;3083;51.508;7.966;2023-08-21T07:51:46;15.60;;;8.53;;
6105;SDS011;3083;51.508;7.966;2023-08-21T07:54:13;9.73;;;7.53;;
6105;SDS011;3083;51.508;7.966;2023-08-21T07:56:40;11.30;;;8.13;;
6105;SDS011;3083;51.508;7.966;2023-08-21T07:59:09;10.47;;;7.33;;
6105;SDS011;3083;51.508;7.966;2023-08-21T08:01:36;10.73;;;7.27;;
6105;SDS011;3083;51.508;7.966;2023-08-21T08:04:03;10.73;;;6.60;;
6105;SDS011;3083;51.508;7.966;2023-08-21T08:06:31;9.03;;;6.73;;
6105;SDS011;3083;51.508;7.966;2023-08-21T08:08:58;8.90;;;5.87;;
6105;SDS011;3083;51.508;7.966;2023-08-21T08:11:25;7.50;;;5.40;;
6105;SDS011;3083;51.508;7.966;2023-08-21T08:13:52;8.23;;;5.60;;
6105;SDS011;3083;51.508;7.966;2023-08-21T08:16:20;8.80;;;6.03;;
6105;SDS011;3083;51.508;7.966;2023-08-21T08:18:47;8.00;;;6.03;;
6105;SDS011;3083;51.508;7.966;2023-08-21T08:21:14;8.50;;;6.03;;
6105;SDS011;3083;51.508;7.966;2023-08-21T08:23:42;8.07;;;6.40;;
6105;SDS011;3083;51.508;7.966;2023-08-21T08:26:09;8.43;;;6.20;;
6105;SDS011;3083;51.508;7.966;2023-08-21T08:28:36;9.40;;;6.20;;
6105;SDS011;3083;51.508;7.966;2023-08-21T08:31:04;8.83;;;5.70;;
6105;SDS011;3083;51.508;7.966;2023-08-21T08:33:32;9.40;;;5.50;;
6105;SDS011;3083;51.508;7.966;2023-08-21T08:35:59;8.53;;;5.03;;
6105;SDS011;3083;51.508;7.966;2023-08-21T08:38:26;11.13;;;5.30;;
6105;SDS011;3083;51.508;7.966;2023-08-21T08:40:53;8.40;;;5.30;;
6105;SDS011;3083;51.508;7.966;2023-08-21T08:43:23;10.47;;;6.30;;
6105;SDS011;3083;51.508;7.966;2023-08-21T08:45:53;8.20;;;5.50;;
6105;SDS011;3083;51.508;7.966;2023-08-21T08:48:23;8.70;;;5.43;;
6105;SDS011;3083;51.508;7.966;2023-08-21T08:50:53;11.00;;;6.47;;
6105;SDS011;3083;51.508;7.966;2023-08-21T08:53:20;11.75;;;6.65;;
6105;SDS011;3083;51.508;7.966;2023-08-21T08:55:48;8.80;;;6.10;;
6105;SDS011;3083;51.508;7.966;2023-08-21T08:58:15;9.43;;;6.77;;
6105;SDS011;3083;51.508;7.966;2023-08-21T09:00:42;12.70;;;6.87;;
6105;SDS011;3083;51.508;7.966;2023-08-21T09:03:09;9.67;;;6.50;;
6105;SDS011;3083;51.508;7.966;2023-08-21T09:05:38;11.17;;;7.23;;
6105;SDS011;3083;51.508;7.966;2023-08-21T09:08:10;10.70;;;6.33;;
6105;SDS011;3083;51.508;7.966;2023-08-21T09:10:38;10.77;;;6.47;;
6105;SDS011;3083;51.508;7.966;2023-08-21T09:13:10;14.53;;;6.60;;
6105;SDS011;3083;51.508;7.966;2023-08-21T09:15:38;8.53;;;5.53;;
6105;SDS011;3083;51.508;7.966;2023-08-21T09:18:08;12.50;;;6.33;;
6105;SDS011;3083;51.508;7.966;2023-08-21T09:20:36;8.07;;;5.53;;
6105;SDS011;3083;51.508;7.966;2023-08-21T09:23:03;11.13;;;6.10;;
6105;SDS011;3083;51.508;7.966;2023-08-21T09:25:34;8.93;;;5.67;;
6105;SDS011;3083;51.508;7.966;2023-08-21T09:28:04;11.80;;;5.70;;
6105;SDS011;3083;51.508;7.966;2023-08-21T09:30:43;8.77;;;5.63;;
6105;SDS011;3083;51.508;7.966;2023-08-21T09:33:11;8.80;;;5.07;;
6105;SDS011;3083;51.508;7.966;2023-08-21T09:35:38;8.47;;;5.23;;
6105;SDS011;3083;51.508;7.966;2023-08-21T09:38:07;8.10;;;5.60;;
6105;SDS011;3083;51.508;7.966;2023-08-21T09:40:35;6.73;;;4.50;;
6105;SDS011;3083;51.508;7.966;2023-08-21T09:43:06;9.03;;;5.17;;
6105;SDS011;3083;51.508;7.966;2023-08-21T09:45:35;9.90;;;5.23;;
6105;SDS011;3083;51.508;7.966;2023-08-21T09:48:02;7.73;;;5.00;;
6105;SDS011;3083;51.508;7.966;2023-08-21T09:50:30;7.63;;;4.87;;
6105;SDS011;3083;51.508;7.966;2023-08-21T09:52:57;10.13;;;6.30;;
6105;SDS011;3083;51.508;7.966;2023-08-21T09:55:25;8.33;;;5.83;;
6105;SDS011;3083;51.508;7.966;2023-08-21T09:57:56;8.27;;;5.40;;
6105;SDS011;3083;51.508;7.966;2023-08-21T10:00:26;7.70;;;4.87;;
6105;SDS011;3083;51.508;7.966;2023-08-21T10:02:55;7.30;;;5.00;;
6105;SDS011;3083;51.508;7.966;2023-08-21T10:05:27;9.17;;;6.70;;
6105;SDS011;3083;51.508;7.966;2023-08-21T10:07:56;7.50;;;6.10;;
6105;SDS011;3083;51.508;7.966;2023-08-21T10:10:28;7.67;;;5.37;;
6105;SDS011;3083;51.508;7.966;2023-08-21T10:12:58;8.18;;;4.93;;
6105;SDS011;3083;51.508;7.966;2023-08-21T10:15:26;9.75;;;5.10;;
6105;SDS011;3083;51.508;7.966;2023-08-21T10:17:54;10.13;;;5.80;;
6105;SDS011;3083;51.508;7.966;2023-08-21T10:20:21;10.15;;;5.68;;
6105;SDS011;3083;51.508;7.966;2023-08-21T10:22:52;10.68;;;5.80;;
6105;SDS011;3083;51.508;7.966;2023-08-21T10:25:21;9.77;;;6.20;;
6105;SDS011;3083;51.508;7.966;2023-08-21T10:27:51;8.63;;;6.07;;
6105;SDS011;3083;51.508;7.966;2023-08-21T10:30:22;11.68;;;6.03;;
6105;SDS011;3083;51.508;7.966;2023-08-21T10:32:51;9.18;;;6.00;;
6105;SDS011;3083;51.508;7.966;2023-08-21T10:35:28;7.75;;;5.22;;
6105;SDS011;3083;51.508;7.966;2023-08-21T10:38:06;8.50;;;6.60;;
6105;SDS011;3083;51.508;7.966;2023-08-21T10:40:35;8.43;;;5.65;;
6105;SDS011;3083;51.508;7.966;2023-08-21T10:43:03;9.98;;;6.32;;
6105;SDS011;3083;51.508;7.966;2023-08-21T10:45:31;7.43;;;5.65;;
6105;SDS011;3083;51.508;7.966;2023-08-21T10:47:59;7.10;;;5.30;;
6105;SDS011;3083;51.508;7.966;2023-08-21T10:50:26;7.93;;;5.43;;
6105;SDS011;3083;51.508;7.966;2023-08-21T10:52:53;7.97;;;5.30;;
6105;SDS011;3083;51.508;7.966;2023-08-21T10:55:21;11.35;;;6.72;;
6105;SDS011;3083;51.508;7.966;2023-08-21T10:57:48;9.90;;;5.97;;
6105;SDS011;3083;51.508;7.966;2023-08-21T11:00:16;9.00;;;6.32;;
6105;SDS011;3083;51.508;7.966;2023-08-21T11:02:47;10.32;;;6.65;;
6105;SDS011;3083;51.508;7.966;2023-08-21T11:05:15;9.23;;;6.80;;
6105;SDS011;3083;51.508;7.966;2023-08-21T11:07:43;9.65;;;5.80;;
6105;SDS011;3083;51.508;7.966;2023-08-21T11:10:11;8.40;;;5.75;;
6105;SDS011;3083;51.508;7.966;2023-08-21T11:12:48;8.20;;;6.20;;
6105;SDS011;3083;51.508;7.966;2023-08-21T11:15:16;9.98;;;6.07;;
6105;SDS011;3083;51.508;7.966;2023-08-21T11:17:53;6.88;;;5.68;;
6105;SDS011;3083;51.508;7.966;2023-08-21T11:20:21;9.57;;;6.32;;
6105;SDS011;3083;51.508;7.966;2023-08-21T11:22:48;8.88;;;5.95;;
6105;SDS011;3083;51.508;7.966;2023-08-21T11:25:15;9.82;;;6.10;;
6105;SDS011;3083;51.508;7.966;2023-08-21T11:27:42;8.45;;;6.45;;
6105;SDS011;3083;51.508;7.966;2023-08-21T11:30:11;6.35;;;5.20;;
6105;SDS011;3083;51.508;7.966;2023-08-21T11:32:39;8.20;;;5.88;;
6105;SDS011;3083;51.508;7.966;2023-08-21T11:35:07;10.13;;;6.28;;
6105;SDS011;3083;51.508;7.966;2023-08-21T11:37:42;8.98;;;7.28;;
6105;SDS011;3083;51.508;7.966;2023-08-21T11:40:11;9.13;;;6.18;;
6105;SDS011;3083;51.508;7.966;2023-08-21T11:42:39;8.30;;;5.68;;
6105;SDS011;3083;51.508;7.966;2023-08-21T11:45:07;7.63;;;5.60;;
6105;SDS011;3083;51.508;7.966;2023-08-21T11:47:36;10.98;;;7.10;;
6105;SDS011;3083;51.508;7.966;2023-08-21T11:50:03;14.75;;;6.35;;
6105;SDS011;3083;51.508;7.966;2023-08-21T11:52:33;10.02;;;6.43;;
6105;SDS011;3083;51.508;7.966;2023-08-21T11:55:06;8.23;;;6.00;;
6105;SDS011;3083;51.508;7.966;2023-08-21T11:57:34;8.60;;;6.07;;
6105;SDS011;3083;51.508;7.966;2023-08-21T12:00:01;8.63;;;6.30;;
6105;SDS011;3083;51.508;7.966;2023-08-21T12:02:31;8.80;;;5.57;;
6105;SDS011;3083;51.508;7.966;2023-08-21T12:05:01;7.70;;;5.80;;
6105;SDS011;3083;51.508;7.966;2023-08-21T12:07:30;8.60;;;6.32;;
6105;SDS011;3083;51.508;7.966;2023-08-21T12:09:58;9.32;;;5.30;;
6105;SDS011;3083;51.508;7.966;2023-08-21T12:12:25;9.10;;;5.72;;
6105;SDS011;3083;51.508;7.966;2023-08-21T12:14:52;6.53;;;5.27;;
6105;SDS011;3083;51.508;7.966;2023-08-21T12:17:19;8.45;;;5.18;;
6105;SDS011;3083;51.508;7.966;2023-08-21T12:19:47;9.50;;;5.65;;
6105;SDS011;3083;51.508;7.966;2023-08-21T12:22:14;8.60;;;5.40;;
6105;SDS011;3083;51.508;7.966;2023-08-21T12:24:41;9.88;;;5.80;;
6105;SDS011;3083;51.508;7.966;2023-08-21T12:27:09;6.65;;;4.63;;
6105;SDS011;3083;51.508;7.966;2023-08-21T12:29:36;8.23;;;5.25;;
6105;SDS011;3083;51.508;7.966;2023-08-21T12:32:04;7.57;;;5.45;;
6105;SDS011;3083;51.508;7.966;2023-08-21T12:34:31;9.63;;;5.35;;
6105;SDS011;3083;51.508;7.966;2023-08-21T12:36:59;7.93;;;4.70;;
6105;SDS011;3083;51.508;7.966;2023-08-21T12:39:26;7.85;;;4.20;;
6105;SDS011;3083;51.508;7.966;2023-08-21T12:41:53;6.28;;;3.90;;
6105;SDS011;3083;51.508;7.966;2023-08-21T12:44:22;8.15;;;4.80;;
6105;SDS011;3083;51.508;7.966;2023-08-21T12:46:49;9.60;;;4.53;;
6105;SDS011;3083;51.508;7.966;2023-08-21T12:49:17;7.82;;;5.10;;
6105;SDS011;3083;51.508;7.966;2023-08-21T12:51:44;7.65;;;4.40;;
6105;SDS011;3083;51.508;7.966;2023-08-21T12:54:11;7.07;;;4.32;;
6105;SDS011;3083;51.508;7.966;2023-08-21T12:56:38;6.07;;;3.83;;
6105;SDS011;3083;51.508;7.966;2023-08-21T12:59:05;8.43;;;5.00;;
6105;SDS011;3083;51.508;7.966;2023-08-21T13:01:34;6.70;;;5.00;;
6105;SDS011;3083;51.508;7.966;2023-08-21T13:04:02;7.30;;;4.70;;
6105;SDS011;3083;51.508;7.966;2023-08-21T13:06:30;8.02;;;4.53;;
6105;SDS011;3083;51.508;7.966;2023-08-21T13:08:58;6.63;;;4.45;;
6105;SDS011;3083;51.508;7.966;2023-08-21T13:11:25;7.75;;;5.00;;
6105;SDS011;3083;51.508;7.966;2023-08-21T13:13:53;10.20;;;4.88;;
6105;SDS011;3083;51.508;7.966;2023-08-21T13:16:20;8.43;;;4.97;;
6105;SDS011;3083;51.508;7.966;2023-08-21T13:18:48;7.80;;;5.10;;
6105;SDS011;3083;51.508;7.966;2023-08-21T13:21:15;9.10;;;5.20;;
6105;SDS011;3083;51.508;7.966;2023-08-21T13:23:42;8.00;;;5.60;;
6105;SDS011;3083;51.508;7.966;2023-08-21T13:26:09;7.28;;;5.35;;
6105;SDS011;3083;51.508;7.966;2023-08-21T13:28:36;10.60;;;5.38;;
6105;SDS011;3083;51.508;7.966;2023-08-21T13:31:03;9.38;;;5.78;;
6105;SDS011;3083;51.508;7.966;2023-08-21T13:33:32;8.75;;;5.15;;
6105;SDS011;3083;51.508;7.966;2023-08-21T13:36:11;11.40;;;6.05;;
6105;SDS011;3083;51.508;7.966;2023-08-21T13:38:38;9.27;;;5.85;;
6105;SDS011;3083;51.508;7.966;2023-08-21T13:41:05;7.63;;;5.18;;
6105;SDS011;3083;51.508;7.966;2023-08-21T13:43:32;7.40;;;5.32;;
6105;SDS011;3083;51.508;7.966;2023-08-21T13:45:59;8.48;;;5.22;;
6105;SDS011;3083;51.508;7.966;2023-08-21T13:48:27;7.60;;;5.30;;
6105;SDS011;3083;51.508;7.966;2023-08-21T13:50:54;7.70;;;5.22;;
6105;SDS011;3083;51.508;7.966;2023-08-21T13:53:22;8.93;;;5.05;;
6105;SDS011;3083;51.508;7.966;2023-08-21T13:55:49;8.35;;;5.57;;
6105;SDS011;3083;51.508;7.966;2023-08-21T13:58:16;11.00;;;5.18;;
6105;SDS011;3083;51.508;7.966;2023-08-21T14:00:43;8.33;;;5.70;;
6105;SDS011;3083;51.508;7.966;2023-08-21T14:03:10;11.33;;;5.20;;
6105;SDS011;3083;51.508;7.966;2023-08-21T14:05:38;8.23;;;5.20;;
6105;SDS011;3083;51.508;7.966;2023-08-21T14:08:05;7.55;;;5.28;;
6105;SDS011;3083;51.508;7.966;2023-08-21T14:10:33;6.25;;;4.90;;
6105;SDS011;3083;51.508;7.966;2023-08-21T14:13:00;5.90;;;4.60;;
6105;SDS011;3083;51.508;7.966;2023-08-21T14:15:28;8.60;;;5.23;;
6105;SDS011;3083;51.508;7.966;2023-08-21T14:17:55;8.50;;;4.90;;
6105;SDS011;3083;51.508;7.966;2023-08-21T14:20:22;9.90;;;5.20;;
6105;SDS011;3083;51.508;7.966;2023-08-21T14:22:49;8.10;;;5.27;;
6105;SDS011;3083;51.508;7.966;2023-08-21T14:25:17;10.40;;;4.87;;
6105;SDS011;3083;51.508;7.966;2023-08-21T14:27:46;8.33;;;5.10;;
6105;SDS011;3083;51.508;7.966;2023-08-21T14:30:14;8.00;;;4.90;;
6105;SDS011;3083;51.508;7.966;2023-08-21T14:32:41;6.83;;;4.90;;
6105;SDS011;3083;51.508;7.966;2023-08-21T14:35:08;8.47;;;5.40;;
6105;SDS011;3083;51.508;7.966;2023-08-21T14:37:35;6.93;;;4.83;;
6105;SDS011;3083;51.508;7.966;2023-08-21T14:40:02;8.90;;;5.00;;
6105;SDS011;3083;51.508;7.966;2023-08-21T14:42:33;5.50;;;4.33;;
6105;SDS011;3083;51.508;7.966;2023-08-21T14:45:01;6.63;;;5.17;;
6105;SDS011;3083;51.508;7.966;2023-08-21T14:47:29;8.40;;;5.30;;
6105;SDS011;3083;51.508;7.966;2023-08-21T14:49:57;6.60;;;5.07;;
6105;SDS011;3083;51.508;7.966;2023-08-21T14:52:24;8.23;;;5.20;;
6105;SDS011;3083;51.508;7.966;2023-08-21T14:54:51;10.40;;;5.80;;
6105;SDS011;3083;51.508;7.966;2023-08-21T14:57:18;10.33;;;5.60;;
6105;SDS011;3083;51.508;7.966;2023-08-21T14:59:45;11.70;;;5.63;;
6105;SDS011;3083;51.508;7.966;2023-08-21T15:02:14;7.57;;;5.20;;
6105;SDS011;3083;51.508;7.966;2023-08-21T15:04:41;14.80;;;5.97;;
6105;SDS011;3083;51.508;7.966;2023-08-21T15:07:09;9.20;;;5.30;;
6105;SDS011;3083;51.508;7.966;2023-08-21T15:09:36;9.50;;;5.67;;